sensor_id;sensor_type;location;lat;lon;timestamp;P1;durP1;ratioP1;P2;durP2;ratioP2
37451;SDS011;23314;51.114;6.900;2023-04-24T00:00:31;1.33;;;1.07;;
37451;SDS011;23314;51.114;6.900;2023-04-24T00:02:57;1.00;;;1.00;;
37451;SDS011;23314;51.114;6.900;2023-04-24T00:05:24;1.07;;;1.07;;
37451;SDS011;23314;51.114;6.900;2023-04-24T00:07:50;1.33;;;1.20;;
37451;SDS011;23314;51.114;6.900;2023-04-24T00:10:18;1.67;;;1.40;;
37451;SDS011;23314;51.114;6.900;2023-04-24T00:12:43;1.80;;;1.30;;
37451;SDS011;23314;51.114;6.900;2023-04-24T00:15:09;3.13;;;1.30;;
37451;SDS011;23314;51.114;6.900;2023-04-24T00:17:35;1.30;;;1.20;;
37451;SDS011;23314;51.114;6.900;2023-04-24T00:20:00;1.43;;;1.23;;
37451;SDS011;23314;51.114;6.900;2023-04-24T00:22:29;2.37;;;1.33;;
37451;SDS011;23314;51.114;6.900;2023-04-24T00:24:55;1.67;;;1.50;;
37451;SDS011;23314;51.114;6.900;2023-04-24T00:27:20;1.47;;;1.23;;
37451;SDS011;23314;51.114;6.900;2023-04-24T00:29:45;1.67;;;1.13;;
37451;SDS011;23314;51.114;6.900;2023-04-24T00:32:11;1.37;;;1.23;;
37451;SDS011;23314;51.114;6.900;2023-04-24T00:34:36;1.60;;;1.23;;
37451;SDS011;23314;51.114;6.900;2023-04-24T00:37:02;1.30;;;1.20;;
37451;SDS011;23314;51.114;6.900;2023-04-24T00:39:27;3.07;;;1.50;;
37451;SDS011;23314;51.114;6.900;2023-04-24T00:41:52;1.30;;;1.20;;
37451;SDS011;23314;51.114;6.900;2023-04-24T00:44:18;2.77;;;1.30;;
37451;SDS011;23314;51.114;6.900;2023-04-24T00:46:43;1.10;;;1.10;;
37451;SDS011;23314;51.114;6.900;2023-04-24T00:49:09;1.27;;;1.17;;
37451;SDS011;23314;51.114;6.900;2023-04-24T00:51:34;1.40;;;1.30;;
37451;SDS011;23314;51.114;6.900;2023-04-24T00:54:01;2.50;;;1.27;;
37451;SDS011;23314;51.114;6.900;2023-04-24T00:56:27;1.07;;;1.07;;
37451;SDS011;23314;51.114;6.900;2023-04-24T00:58:53;3.00;;;1.10;;
37451;SDS011;23314;51.114;6.900;2023-04-24T01:01:19;4.50;;;1.40;;
37451;SDS011;23314;51.114;6.900;2023-04-24T01:03:51;1.83;;;1.43;;
37451;SDS011;23314;51.114;6.900;2023-04-24T01:06:18;3.40;;;1.40;;
37451;SDS011;23314;51.114;6.900;2023-04-24T01:08:43;1.27;;;1.20;;
37451;SDS011;23314;51.114;6.900;2023-04-24T01:11:11;1.67;;;1.20;;
37451;SDS011;23314;51.114;6.900;2023-04-24T01:13:36;2.40;;;1.53;;
37451;SDS011;23314;51.114;6.900;2023-04-24T01:16:02;1.77;;;1.60;;
37451;SDS011;23314;51.114;6.900;2023-04-24T01:18:27;2.50;;;1.40;;
37451;SDS011;23314;51.114;6.900;2023-04-24T01:20:53;1.50;;;1.50;;
37451;SDS011;23314;51.114;6.900;2023-04-24T01:23:22;2.87;;;1.70;;
37451;SDS011;23314;51.114;6.900;2023-04-24T01:25:48;1.63;;;1.57;;
37451;SDS011;23314;51.114;6.900;2023-04-24T01:28:14;1.90;;;1.80;;
37451;SDS011;23314;51.114;6.900;2023-04-24T01:30:41;2.57;;;2.20;;
37451;SDS011;23314;51.114;6.900;2023-04-24T01:33:06;2.77;;;2.57;;
37451;SDS011;23314;51.114;6.900;2023-04-24T01:35:32;6.50;;;2.90;;
37451;SDS011;23314;51.114;6.900;2023-04-24T01:37:57;2.90;;;2.70;;
37451;SDS011;23314;51.114;6.900;2023-04-24T01:40:23;3.20;;;2.93;;
37451;SDS011;23314;51.114;6.900;2023-04-24T01:42:48;3.00;;;2.70;;
37451;SDS011;23314;51.114;6.900;2023-04-24T01:45:13;4.30;;;3.23;;
37451;SDS011;23314;51.114;6.900;2023-04-24T01:47:39;5.43;;;3.53;;
37451;SDS011;23314;51.114;6.900;2023-04-24T01:50:05;4.93;;;4.20;;
37451;SDS011;23314;51.114;6.900;2023-04-24T01:52:31;4.83;;;4.30;;
37451;SDS011;23314;51.114;6.900;2023-04-24T01:55:04;6.37;;;4.60;;
37451;SDS011;23314;51.114;6.900;2023-04-24T01:57:31;8.60;;;4.50;;
37451;SDS011;23314;51.114;6.900;2023-04-24T01:59:57;4.70;;;4.20;;
37451;SDS011;23314;51.114;6.900;2023-04-24T02:02:22;6.07;;;5.10;;
37451;SDS011;23314;51.114;6.900;2023-04-24T02:04:55;7.07;;;5.23;;
37451;SDS011;23314;51.114;6.900;2023-04-24T02:07:21;5.73;;;5.23;;
37451;SDS011;23314;51.114;6.900;2023-04-24T02:09:47;5.93;;;5.33;;
37451;SDS011;23314;51.114;6.900;2023-04-24T02:12:12;7.30;;;6.57;;
37451;SDS011;23314;51.114;6.900;2023-04-24T02:14:38;7.40;;;5.80;;
37451;SDS011;23314;51.114;6.900;2023-04-24T02:17:03;8.27;;;5.80;;
37451;SDS011;23314;51.114;6.900;2023-04-24T02:19:29;6.77;;;5.97;;
37451;SDS011;23314;51.114;6.900;2023-04-24T02:21:55;8.07;;;5.73;;
37451;SDS011;23314;51.114;6.900;2023-04-24T02:24:20;7.27;;;5.37;;
37451;SDS011;23314;51.114;6.900;2023-04-24T02:26:45;8.17;;;6.47;;
37451;SDS011;23314;51.114;6.900;2023-04-24T02:29:11;9.73;;;7.07;;
37451;SDS011;23314;51.114;6.900;2023-04-24T02:31:36;12.17;;;7.73;;
37451;SDS011;23314;51.114;6.900;2023-04-24T02:34:01;7.97;;;7.17;;
37451;SDS011;23314;51.114;6.900;2023-04-24T02:36:27;8.50;;;7.50;;
37451;SDS011;23314;51.114;6.900;2023-04-24T02:38:52;11.57;;;7.83;;
37451;SDS011;23314;51.114;6.900;2023-04-24T02:41:17;10.57;;;8.10;;
37451;SDS011;23314;51.114;6.900;2023-04-24T02:43:43;10.83;;;7.93;;
37451;SDS011;23314;51.114;6.900;2023-04-24T02:46:08;12.23;;;8.53;;
37451;SDS011;23314;51.114;6.900;2023-04-24T02:48:34;11.27;;;9.30;;
37451;SDS011;23314;51.114;6.900;2023-04-24T02:50:59;9.70;;;8.70;;
37451;SDS011;23314;51.114;6.900;2023-04-24T02:53:24;10.17;;;9.03;;
37451;SDS011;23314;51.114;6.900;2023-04-24T02:55:50;10.73;;;8.30;;
37451;SDS011;23314;51.114;6.900;2023-04-24T02:58:15;10.03;;;8.60;;
37451;SDS011;23314;51.114;6.900;2023-04-24T03:00:40;9.30;;;8.10;;
37451;SDS011;23314;51.114;6.900;2023-04-24T03:03:06;11.17;;;8.10;;
37451;SDS011;23314;51.114;6.900;2023-04-24T03:05:32;10.20;;;8.03;;
37451;SDS011;23314;51.114;6.900;2023-04-24T03:07:57;8.20;;;7.13;;
37451;SDS011;23314;51.114;6.900;2023-04-24T03:10:22;9.57;;;7.60;;
37451;SDS011;23314;51.114;6.900;2023-04-24T03:12:48;9.93;;;8.90;;
37451;SDS011;23314;51.114;6.900;2023-04-24T03:15:13;12.73;;;8.37;;
37451;SDS011;23314;51.114;6.900;2023-04-24T03:17:39;9.87;;;7.03;;
37451;SDS011;23314;51.114;6.900;2023-04-24T03:20:04;8.10;;;6.93;;
37451;SDS011;23314;51.114;6.900;2023-04-24T03:22:30;9.90;;;7.33;;
37451;SDS011;23314;51.114;6.900;2023-04-24T03:24:57;8.77;;;6.97;;
37451;SDS011;23314;51.114;6.900;2023-04-24T03:27:23;9.13;;;7.63;;
37451;SDS011;23314;51.114;6.900;2023-04-24T03:29:48;8.37;;;7.43;;
37451;SDS011;23314;51.114;6.900;2023-04-24T03:32:16;10.40;;;8.47;;
37451;SDS011;23314;51.114;6.900;2023-04-24T03:34:41;10.93;;;8.43;;
37451;SDS011;23314;51.114;6.900;2023-04-24T03:37:07;11.03;;;9.00;;
37451;SDS011;23314;51.114;6.900;2023-04-24T03:39:32;18.63;;;9.40;;
37451;SDS011;23314;51.114;6.900;2023-04-24T03:41:57;11.73;;;9.57;;
37451;SDS011;23314;51.114;6.900;2023-04-24T03:44:23;11.10;;;9.03;;
37451;SDS011;23314;51.114;6.900;2023-04-24T03:46:48;10.23;;;9.20;;
37451;SDS011;23314;51.114;6.900;2023-04-24T03:49:13;14.63;;;9.50;;
37451;SDS011;23314;51.114;6.900;2023-04-24T03:51:39;14.33;;;10.03;;
37451;SDS011;23314;51.114;6.900;2023-04-24T03:54:04;12.47;;;9.50;;
37451;SDS011;23314;51.114;6.900;2023-04-24T03:56:29;11.83;;;9.30;;
37451;SDS011;23314;51.114;6.900;2023-04-24T03:58:55;13.77;;;9.10;;
37451;SDS011;23314;51.114;6.900;2023-04-24T04:01:20;14.87;;;9.53;;
37451;SDS011;23314;51.114;6.900;2023-04-24T04:03:46;13.33;;;9.43;;
37451;SDS011;23314;51.114;6.900;2023-04-24T04:06:11;13.20;;;8.43;;
37451;SDS011;23314;51.114;6.900;2023-04-24T04:08:38;10.30;;;8.60;;
37451;SDS011;23314;51.114;6.900;2023-04-24T04:11:03;11.10;;;8.40;;
37451;SDS011;23314;51.114;6.900;2023-04-24T04:13:28;14.13;;;9.63;;
37451;SDS011;23314;51.114;6.900;2023-04-24T04:15:54;10.10;;;8.63;;
37451;SDS011;23314;51.114;6.900;2023-04-24T04:18:19;12.30;;;9.70;;
37451;SDS011;23314;51.114;6.900;2023-04-24T04:20:45;15.43;;;9.17;;
37451;SDS011;23314;51.114;6.900;2023-04-24T04:23:10;12.10;;;8.37;;
37451;SDS011;23314;51.114;6.900;2023-04-24T04:25:35;11.80;;;8.83;;
37451;SDS011;23314;51.114;6.900;2023-04-24T04:28:01;10.00;;;8.57;;
37451;SDS011;23314;51.114;6.900;2023-04-24T04:30:27;10.97;;;8.87;;
37451;SDS011;23314;51.114;6.900;2023-04-24T04:32:54;10.43;;;7.93;;
37451;SDS011;23314;51.114;6.900;2023-04-24T04:35:20;11.67;;;7.90;;
37451;SDS011;23314;51.114;6.900;2023-04-24T04:37:45;10.77;;;7.40;;
37451;SDS011;23314;51.114;6.900;2023-04-24T04:40:10;9.33;;;7.03;;
37451;SDS011;23314;51.114;6.900;2023-04-24T04:42:36;8.53;;;7.17;;
37451;SDS011;23314;51.114;6.900;2023-04-24T04:45:05;10.77;;;7.30;;
37451;SDS011;23314;51.114;6.900;2023-04-24T04:47:33;10.03;;;6.23;;
37451;SDS011;23314;51.114;6.900;2023-04-24T04:49:59;8.00;;;6.87;;
37451;SDS011;23314;51.114;6.900;2023-04-24T04:52:25;10.97;;;7.30;;
37451;SDS011;23314;51.114;6.900;2023-04-24T04:54:51;8.67;;;6.87;;
37451;SDS011;23314;51.114;6.900;2023-04-24T04:57:17;9.73;;;7.23;;
37451;SDS011;23314;51.114;6.900;2023-04-24T04:59:42;10.03;;;7.10;;
37451;SDS011;23314;51.114;6.900;2023-04-24T05:02:07;9.63;;;6.57;;
37451;SDS011;23314;51.114;6.900;2023-04-24T05:04:33;7.30;;;6.50;;
37451;SDS011;23314;51.114;6.900;2023-04-24T05:06:58;11.57;;;6.57;;
37451;SDS011;23314;51.114;6.900;2023-04-24T05:09:23;11.67;;;6.50;;
37451;SDS011;23314;51.114;6.900;2023-04-24T05:11:52;9.20;;;6.80;;
37451;SDS011;23314;51.114;6.900;2023-04-24T05:14:17;8.23;;;6.27;;
37451;SDS011;23314;51.114;6.900;2023-04-24T05:16:44;10.07;;;7.00;;
37451;SDS011;23314;51.114;6.900;2023-04-24T05:19:09;7.80;;;6.40;;
37451;SDS011;23314;51.114;6.900;2023-04-24T05:21:36;8.30;;;6.40;;
37451;SDS011;23314;51.114;6.900;2023-04-24T05:24:02;9.10;;;6.40;;
37451;SDS011;23314;51.114;6.900;2023-04-24T05:26:46;8.87;;;6.63;;
37451;SDS011;23314;51.114;6.900;2023-04-24T05:29:12;7.43;;;5.90;;
37451;SDS011;23314;51.114;6.900;2023-04-24T05:31:37;10.90;;;6.73;;
37451;SDS011;23314;51.114;6.900;2023-04-24T05:34:02;10.43;;;7.03;;
37451;SDS011;23314;51.114;6.900;2023-04-24T05:36:28;7.73;;;6.93;;
37451;SDS011;23314;51.114;6.900;2023-04-24T05:38:53;12.73;;;7.80;;
37451;SDS011;23314;51.114;6.900;2023-04-24T05:41:18;12.13;;;8.37;;
37451;SDS011;23314;51.114;6.900;2023-04-24T05:43:43;11.10;;;7.70;;
37451;SDS011;23314;51.114;6.900;2023-04-24T05:46:09;15.17;;;8.27;;
37451;SDS011;23314;51.114;6.900;2023-04-24T05:48:34;9.80;;;8.03;;
37451;SDS011;23314;51.114;6.900;2023-04-24T05:51:00;13.70;;;7.67;;
37451;SDS011;23314;51.114;6.900;2023-04-24T05:53:25;15.57;;;7.60;;
37451;SDS011;23314;51.114;6.900;2023-04-24T05:55:50;9.47;;;7.77;;
37451;SDS011;23314;51.114;6.900;2023-04-24T05:58:16;8.07;;;5.00;;
37451;SDS011;23314;51.114;6.900;2023-04-24T06:00:41;12.97;;;7.03;;
37451;SDS011;23314;51.114;6.900;2023-04-24T06:03:07;11.10;;;7.73;;
37451;SDS011;23314;51.114;6.900;2023-04-24T06:05:33;12.93;;;6.83;;
37451;SDS011;23314;51.114;6.900;2023-04-24T06:07:59;13.63;;;6.20;;
37451;SDS011;23314;51.114;6.900;2023-04-24T06:10:25;7.30;;;5.83;;
37451;SDS011;23314;51.114;6.900;2023-04-24T06:12:50;6.73;;;6.03;;
37451;SDS011;23314;51.114;6.900;2023-04-24T06:15:15;8.17;;;5.60;;
37451;SDS011;23314;51.114;6.900;2023-04-24T06:17:41;12.00;;;6.87;;
37451;SDS011;23314;51.114;6.900;2023-04-24T06:20:06;9.47;;;5.73;;
37451;SDS011;23314;51.114;6.900;2023-04-24T06:22:33;6.60;;;5.43;;
37451;SDS011;23314;51.114;6.900;2023-04-24T06:24:59;12.00;;;5.47;;
37451;SDS011;23314;51.114;6.900;2023-04-24T06:27:24;13.47;;;6.13;;
37451;SDS011;23314;51.114;6.900;2023-04-24T06:29:49;5.77;;;5.20;;
37451;SDS011;23314;51.114;6.900;2023-04-24T06:32:19;5.00;;;4.50;;
37451;SDS011;23314;51.114;6.900;2023-04-24T06:34:48;13.57;;;5.03;;
37451;SDS011;23314;51.114;6.900;2023-04-24T06:37:14;13.77;;;6.03;;
37451;SDS011;23314;51.114;6.900;2023-04-24T06:39:41;9.00;;;4.93;;
37451;SDS011;23314;51.114;6.900;2023-04-24T06:42:06;8.33;;;4.53;;
37451;SDS011;23314;51.114;6.900;2023-04-24T06:44:33;6.00;;;4.40;;
37451;SDS011;23314;51.114;6.900;2023-04-24T06:47:02;5.27;;;4.23;;
37451;SDS011;23314;51.114;6.900;2023-04-24T06:49:28;7.67;;;4.60;;
37451;SDS011;23314;51.114;6.900;2023-04-24T06:51:53;4.63;;;4.23;;
37451;SDS011;23314;51.114;6.900;2023-04-24T06:54:18;6.57;;;5.27;;
37451;SDS011;23314;51.114;6.900;2023-04-24T06:56:43;10.60;;;5.40;;
37451;SDS011;23314;51.114;6.900;2023-04-24T06:59:11;6.90;;;5.07;;
37451;SDS011;23314;51.114;6.900;2023-04-24T07:01:36;9.10;;;4.67;;
37451;SDS011;23314;51.114;6.900;2023-04-24T07:04:01;5.03;;;3.83;;
37451;SDS011;23314;51.114;6.900;2023-04-24T07:06:27;3.73;;;3.43;;
37451;SDS011;23314;51.114;6.900;2023-04-24T07:08:52;3.50;;;3.20;;
37451;SDS011;23314;51.114;6.900;2023-04-24T07:11:18;3.57;;;3.23;;
37451;SDS011;23314;51.114;6.900;2023-04-24T07:13:43;4.00;;;2.87;;
37451;SDS011;23314;51.114;6.900;2023-04-24T07:16:09;3.50;;;3.20;;
37451;SDS011;23314;51.114;6.900;2023-04-24T07:18:34;3.23;;;2.70;;
37451;SDS011;23314;51.114;6.900;2023-04-24T07:21:01;2.17;;;2.07;;
37451;SDS011;23314;51.114;6.900;2023-04-24T07:23:26;1.83;;;1.60;;
37451;SDS011;23314;51.114;6.900;2023-04-24T07:25:52;1.53;;;1.43;;
37451;SDS011;23314;51.114;6.900;2023-04-24T07:28:17;2.20;;;1.70;;
37451;SDS011;23314;51.114;6.900;2023-04-24T07:30:43;1.97;;;1.70;;
37451;SDS011;23314;51.114;6.900;2023-04-24T07:33:08;2.50;;;2.30;;
37451;SDS011;23314;51.114;6.900;2023-04-24T07:35:36;1.80;;;1.70;;
37451;SDS011;23314;51.114;6.900;2023-04-24T07:38:01;1.77;;;1.67;;
37451;SDS011;23314;51.114;6.900;2023-04-24T07:40:27;2.50;;;2.07;;
37451;SDS011;23314;51.114;6.900;2023-04-24T07:42:52;3.03;;;1.90;;
37451;SDS011;23314;51.114;6.900;2023-04-24T07:45:17;1.60;;;1.60;;
37451;SDS011;23314;51.114;6.900;2023-04-24T07:47:43;1.93;;;1.50;;
37451;SDS011;23314;51.114;6.900;2023-04-24T07:50:10;1.70;;;1.60;;
37451;SDS011;23314;51.114;6.900;2023-04-24T07:52:36;2.00;;;1.60;;
37451;SDS011;23314;51.114;6.900;2023-04-24T07:55:02;2.40;;;2.17;;
37451;SDS011;23314;51.114;6.900;2023-04-24T07:57:27;1.53;;;1.50;;
37451;SDS011;23314;51.114;6.900;2023-04-24T07:59:53;0.80;;;0.80;;
37451;SDS011;23314;51.114;6.900;2023-04-24T08:02:18;3.57;;;1.00;;
37451;SDS011;23314;51.114;6.900;2023-04-24T08:04:43;0.90;;;0.90;;
37451;SDS011;23314;51.114;6.900;2023-04-24T08:07:09;2.57;;;0.70;;
37451;SDS011;23314;51.114;6.900;2023-04-24T08:09:34;1.07;;;0.97;;
37451;SDS011;23314;51.114;6.900;2023-04-24T08:11:59;2.43;;;1.10;;
37451;SDS011;23314;51.114;6.900;2023-04-24T08:14:26;0.90;;;0.90;;
37451;SDS011;23314;51.114;6.900;2023-04-24T08:16:53;1.00;;;1.00;;
37451;SDS011;23314;51.114;6.900;2023-04-24T08:19:20;1.70;;;1.60;;
37451;SDS011;23314;51.114;6.900;2023-04-24T08:21:45;2.23;;;1.60;;
37451;SDS011;23314;51.114;6.900;2023-04-24T08:24:11;2.20;;;2.00;;
37451;SDS011;23314;51.114;6.900;2023-04-24T08:26:36;2.60;;;2.40;;
37451;SDS011;23314;51.114;6.900;2023-04-24T08:29:01;3.63;;;2.93;;
37451;SDS011;23314;51.114;6.900;2023-04-24T08:31:27;3.23;;;2.97;;
37451;SDS011;23314;51.114;6.900;2023-04-24T08:33:52;4.07;;;3.20;;
37451;SDS011;23314;51.114;6.900;2023-04-24T08:36:18;3.50;;;3.13;;
37451;SDS011;23314;51.114;6.900;2023-04-24T08:38:44;3.43;;;3.13;;
37451;SDS011;23314;51.114;6.900;2023-04-24T08:41:11;3.83;;;3.43;;
37451;SDS011;23314;51.114;6.900;2023-04-24T08:43:36;2.90;;;2.70;;
37451;SDS011;23314;51.114;6.900;2023-04-24T08:46:03;3.40;;;3.07;;
37451;SDS011;23314;51.114;6.900;2023-04-24T08:48:29;3.17;;;2.97;;
37451;SDS011;23314;51.114;6.900;2023-04-24T08:50:55;3.17;;;2.70;;
37451;SDS011;23314;51.114;6.900;2023-04-24T08:53:21;3.00;;;2.80;;
37451;SDS011;23314;51.114;6.900;2023-04-24T08:55:48;3.87;;;3.17;;
37451;SDS011;23314;51.114;6.900;2023-04-24T08:58:15;3.80;;;3.20;;
37451;SDS011;23314;51.114;6.900;2023-04-24T09:00:41;3.40;;;3.10;;
37451;SDS011;23314;51.114;6.900;2023-04-24T09:05:44;4.23;;;3.90;;
37451;SDS011;23314;51.114;6.900;2023-04-24T09:08:12;4.70;;;4.30;;
37451;SDS011;23314;51.114;6.900;2023-04-24T09:10:38;5.63;;;4.70;;
37451;SDS011;23314;51.114;6.900;2023-04-24T09:13:04;7.97;;;5.50;;
37451;SDS011;23314;51.114;6.900;2023-04-24T09:15:31;5.80;;;5.30;;
37451;SDS011;23314;51.114;6.900;2023-04-24T09:17:56;6.63;;;5.90;;
37451;SDS011;23314;51.114;6.900;2023-04-24T09:20:22;7.77;;;6.17;;
37451;SDS011;23314;51.114;6.900;2023-04-24T09:22:47;5.80;;;4.97;;
37451;SDS011;23314;51.114;6.900;2023-04-24T09:25:13;7.73;;;6.20;;
37451;SDS011;23314;51.114;6.900;2023-04-24T09:27:41;7.33;;;6.27;;
37451;SDS011;23314;51.114;6.900;2023-04-24T09:30:09;8.50;;;6.23;;
37451;SDS011;23314;51.114;6.900;2023-04-24T09:32:34;9.63;;;6.43;;
37451;SDS011;23314;51.114;6.900;2023-04-24T09:35:06;7.97;;;6.10;;
37451;SDS011;23314;51.114;6.900;2023-04-24T09:37:36;10.03;;;6.40;;
37451;SDS011;23314;51.114;6.900;2023-04-24T09:42:46;10.13;;;5.13;;
37451;SDS011;23314;51.114;6.900;2023-04-24T09:45:16;8.30;;;5.13;;
37451;SDS011;23314;51.114;6.900;2023-04-24T09:47:41;9.53;;;5.40;;
37451;SDS011;23314;51.114;6.900;2023-04-24T09:50:14;9.83;;;5.93;;
37451;SDS011;23314;51.114;6.900;2023-04-24T09:52:44;12.13;;;7.57;;
37451;SDS011;23314;51.114;6.900;2023-04-24T09:55:15;11.13;;;7.23;;
37451;SDS011;23314;51.114;6.900;2023-04-24T09:57:52;10.53;;;7.20;;
37451;SDS011;23314;51.114;6.900;2023-04-24T10:00:22;13.87;;;8.03;;
37451;SDS011;23314;51.114;6.900;2023-04-24T10:03:01;15.40;;;8.17;;
37451;SDS011;23314;51.114;6.900;2023-04-24T10:05:34;13.17;;;8.30;;
37451;SDS011;23314;51.114;6.900;2023-04-24T10:08:05;11.13;;;7.87;;
37451;SDS011;23314;51.114;6.900;2023-04-24T10:10:32;10.80;;;7.07;;
37451;SDS011;23314;51.114;6.900;2023-04-24T10:12:59;14.00;;;7.63;;
37451;SDS011;23314;51.114;6.900;2023-04-24T10:15:26;11.33;;;8.07;;
37451;SDS011;23314;51.114;6.900;2023-04-24T10:17:51;14.70;;;7.70;;
37451;SDS011;23314;51.114;6.900;2023-04-24T10:20:21;11.87;;;7.83;;
37451;SDS011;23314;51.114;6.900;2023-04-24T10:22:49;9.73;;;7.97;;
37451;SDS011;23314;51.114;6.900;2023-04-24T10:25:22;13.10;;;7.43;;
37451;SDS011;23314;51.114;6.900;2023-04-24T10:27:49;10.57;;;6.23;;
37451;SDS011;23314;51.114;6.900;2023-04-24T10:30:15;11.00;;;7.10;;
37451;SDS011;23314;51.114;6.900;2023-04-24T10:32:41;12.80;;;6.60;;
37451;SDS011;23314;51.114;6.900;2023-04-24T10:35:07;12.63;;;7.37;;
37451;SDS011;23314;51.114;6.900;2023-04-24T10:37:37;10.60;;;6.30;;
37451;SDS011;23314;51.114;6.900;2023-04-24T10:40:05;11.63;;;7.43;;
37451;SDS011;23314;51.114;6.900;2023-04-24T10:42:33;13.93;;;6.43;;
37451;SDS011;23314;51.114;6.900;2023-04-24T10:44:58;13.10;;;6.40;;
37451;SDS011;23314;51.114;6.900;2023-04-24T10:47:24;11.13;;;6.47;;
37451;SDS011;23314;51.114;6.900;2023-04-24T10:49:50;8.73;;;6.17;;
37451;SDS011;23314;51.114;6.900;2023-04-24T10:52:16;9.27;;;5.47;;
37451;SDS011;23314;51.114;6.900;2023-04-24T10:54:45;12.13;;;6.00;;
37451;SDS011;23314;51.114;6.900;2023-04-24T10:59:43;7.73;;;4.90;;
37451;SDS011;23314;51.114;6.900;2023-04-24T11:02:09;9.73;;;5.27;;
37451;SDS011;23314;51.114;6.900;2023-04-24T11:04:35;8.47;;;4.70;;
37451;SDS011;23314;51.114;6.900;2023-04-24T11:07:00;9.10;;;4.07;;
37451;SDS011;23314;51.114;6.900;2023-04-24T11:09:27;8.90;;;4.37;;
37451;SDS011;23314;51.114;6.900;2023-04-24T11:12:08;9.47;;;4.20;;
37451;SDS011;23314;51.114;6.900;2023-04-24T11:20:00;9.67;;;3.90;;
37451;SDS011;23314;51.114;6.900;2023-04-24T11:22:30;7.73;;;3.93;;
37451;SDS011;23314;51.114;6.900;2023-04-24T11:24:59;9.57;;;4.53;;
37451;SDS011;23314;51.114;6.900;2023-04-24T11:27:28;7.43;;;3.67;;
37451;SDS011;23314;51.114;6.900;2023-04-24T11:30:03;9.73;;;4.77;;
37451;SDS011;23314;51.114;6.900;2023-04-24T11:32:29;10.30;;;4.17;;
37451;SDS011;23314;51.114;6.900;2023-04-24T11:37:35;10.63;;;4.00;;
37451;SDS011;23314;51.114;6.900;2023-04-24T11:40:02;10.20;;;3.97;;
37451;SDS011;23314;51.114;6.900;2023-04-24T11:42:33;14.03;;;4.00;;
37451;SDS011;23314;51.114;6.900;2023-04-24T11:45:26;12.83;;;4.47;;
37451;SDS011;23314;51.114;6.900;2023-04-24T11:47:52;6.47;;;3.80;;
37451;SDS011;23314;51.114;6.900;2023-04-24T11:50:19;13.90;;;4.37;;
37451;SDS011;23314;51.114;6.900;2023-04-24T11:52:48;8.10;;;3.70;;
37451;SDS011;23314;51.114;6.900;2023-04-24T11:57:39;11.43;;;3.83;;
37451;SDS011;23314;51.114;6.900;2023-04-24T12:00:14;10.40;;;4.40;;
37451;SDS011;23314;51.114;6.900;2023-04-24T12:02:42;8.20;;;3.70;;
37451;SDS011;23314;51.114;6.900;2023-04-24T12:05:07;8.13;;;3.80;;
37451;SDS011;23314;51.114;6.900;2023-04-24T12:07:40;9.57;;;3.63;;
37451;SDS011;23314;51.114;6.900;2023-04-24T12:10:10;7.20;;;3.37;;
37451;SDS011;23314;51.114;6.900;2023-04-24T12:12:35;7.03;;;3.47;;
37451;SDS011;23314;51.114;6.900;2023-04-24T12:15:01;7.20;;;3.53;;
37451;SDS011;23314;51.114;6.900;2023-04-24T12:17:32;8.50;;;2.97;;
37451;SDS011;23314;51.114;6.900;2023-04-24T12:20:03;7.80;;;3.23;;
37451;SDS011;23314;51.114;6.900;2023-04-24T12:25:29;6.13;;;3.00;;
37451;SDS011;23314;51.114;6.900;2023-04-24T12:30:30;7.27;;;3.23;;
37451;SDS011;23314;51.114;6.900;2023-04-24T12:32:58;6.77;;;2.70;;
37451;SDS011;23314;51.114;6.900;2023-04-24T12:35:24;8.20;;;3.00;;
37451;SDS011;23314;51.114;6.900;2023-04-24T12:37:51;8.83;;;3.13;;
37451;SDS011;23314;51.114;6.900;2023-04-24T12:40:17;6.87;;;2.57;;
37451;SDS011;23314;51.114;6.900;2023-04-24T12:42:49;7.30;;;2.77;;
37451;SDS011;23314;51.114;6.900;2023-04-24T12:45:15;8.80;;;2.63;;
37451;SDS011;23314;51.114;6.900;2023-04-24T12:47:42;7.37;;;3.10;;
37451;SDS011;23314;51.114;6.900;2023-04-24T12:50:09;4.47;;;2.70;;
37451;SDS011;23314;51.114;6.900;2023-04-24T12:52:35;8.63;;;2.97;;
37451;SDS011;23314;51.114;6.900;2023-04-24T12:55:01;5.93;;;2.80;;
37451;SDS011;23314;51.114;6.900;2023-04-24T12:57:29;6.73;;;2.80;;
37451;SDS011;23314;51.114;6.900;2023-04-24T12:59:55;6.23;;;2.20;;
37451;SDS011;23314;51.114;6.900;2023-04-24T13:02:22;4.07;;;2.03;;
37451;SDS011;23314;51.114;6.900;2023-04-24T13:04:49;3.37;;;2.10;;
37451;SDS011;23314;51.114;6.900;2023-04-24T13:07:15;6.70;;;2.43;;
37451;SDS011;23314;51.114;6.900;2023-04-24T13:09:41;3.13;;;1.93;;
37451;SDS011;23314;51.114;6.900;2023-04-24T13:12:07;2.43;;;1.60;;
37451;SDS011;23314;51.114;6.900;2023-04-24T13:14:33;5.33;;;2.10;;
37451;SDS011;23314;51.114;6.900;2023-04-24T13:16:59;5.57;;;2.13;;
37451;SDS011;23314;51.114;6.900;2023-04-24T13:19:25;8.70;;;2.73;;
37451;SDS011;23314;51.114;6.900;2023-04-24T13:21:51;4.60;;;2.10;;
37451;SDS011;23314;51.114;6.900;2023-04-24T13:24:17;4.17;;;1.90;;
37451;SDS011;23314;51.114;6.900;2023-04-24T13:26:42;3.70;;;2.20;;
37451;SDS011;23314;51.114;6.900;2023-04-24T13:29:08;3.77;;;2.07;;
37451;SDS011;23314;51.114;6.900;2023-04-24T13:31:33;6.83;;;3.07;;
37451;SDS011;23314;51.114;6.900;2023-04-24T13:33:59;4.87;;;2.30;;
37451;SDS011;23314;51.114;6.900;2023-04-24T13:36:24;6.57;;;2.60;;
37451;SDS011;23314;51.114;6.900;2023-04-24T13:38:50;5.87;;;2.40;;
37451;SDS011;23314;51.114;6.900;2023-04-24T13:41:15;4.90;;;2.50;;
37451;SDS011;23314;51.114;6.900;2023-04-24T13:43:41;6.73;;;2.83;;
37451;SDS011;23314;51.114;6.900;2023-04-24T13:46:07;5.10;;;2.87;;
37451;SDS011;23314;51.114;6.900;2023-04-24T13:48:33;8.33;;;2.60;;
37451;SDS011;23314;51.114;6.900;2023-04-24T13:50:58;5.23;;;2.70;;
37451;SDS011;23314;51.114;6.900;2023-04-24T13:53:23;4.70;;;2.13;;
37451;SDS011;23314;51.114;6.900;2023-04-24T13:55:49;5.00;;;2.27;;
37451;SDS011;23314;51.114;6.900;2023-04-24T13:58:14;6.07;;;2.67;;
37451;SDS011;23314;51.114;6.900;2023-04-24T14:00:40;5.60;;;2.20;;
37451;SDS011;23314;51.114;6.900;2023-04-24T14:03:05;5.20;;;2.23;;
37451;SDS011;23314;51.114;6.900;2023-04-24T14:05:31;8.23;;;2.83;;
37451;SDS011;23314;51.114;6.900;2023-04-24T14:07:56;4.80;;;2.40;;
37451;SDS011;23314;51.114;6.900;2023-04-24T14:10:21;2.73;;;2.20;;
37451;SDS011;23314;51.114;6.900;2023-04-24T14:12:47;5.67;;;2.50;;
37451;SDS011;23314;51.114;6.900;2023-04-24T14:15:13;4.93;;;2.80;;
37451;SDS011;23314;51.114;6.900;2023-04-24T14:17:38;4.33;;;2.57;;
37451;SDS011;23314;51.114;6.900;2023-04-24T14:20:04;5.50;;;2.70;;
37451;SDS011;23314;51.114;6.900;2023-04-24T14:22:30;4.57;;;2.47;;
37451;SDS011;23314;51.114;6.900;2023-04-24T14:24:56;4.80;;;2.67;;
37451;SDS011;23314;51.114;6.900;2023-04-24T14:27:21;5.60;;;2.20;;
37451;SDS011;23314;51.114;6.900;2023-04-24T14:29:46;5.50;;;2.33;;
37451;SDS011;23314;51.114;6.900;2023-04-24T14:32:12;4.83;;;2.30;;
37451;SDS011;23314;51.114;6.900;2023-04-24T14:34:40;5.57;;;2.10;;
37451;SDS011;23314;51.114;6.900;2023-04-24T14:37:05;5.07;;;2.10;;
37451;SDS011;23314;51.114;6.900;2023-04-24T14:39:31;3.80;;;2.10;;
37451;SDS011;23314;51.114;6.900;2023-04-24T14:41:56;4.13;;;2.13;;
37451;SDS011;23314;51.114;6.900;2023-04-24T14:44:21;5.03;;;2.47;;
37451;SDS011;23314;51.114;6.900;2023-04-24T14:46:49;2.80;;;1.80;;
37451;SDS011;23314;51.114;6.900;2023-04-24T14:49:14;5.25;;;2.35;;
37451;SDS011;23314;51.114;6.900;2023-04-24T14:51:40;3.73;;;1.90;;
37451;SDS011;23314;51.114;6.900;2023-04-24T14:54:06;3.77;;;1.83;;
37451;SDS011;23314;51.114;6.900;2023-04-24T14:56:31;2.43;;;1.97;;
37451;SDS011;23314;51.114;6.900;2023-04-24T14:58:57;2.37;;;1.80;;
37451;SDS011;23314;51.114;6.900;2023-04-24T15:01:22;3.40;;;2.07;;